Time,TemperatureF,DewpointF,PressureIn,WindDirection,WindDirectionDegrees,WindSpeedMPH,WindSpeedGustMPH,Humidity,HourlyPrecipIn,Conditions,Clouds,dailyrainin,SoftwareType,DateUTC
2013-08-26 00:00:00,58.6,52.8,30.31,East,90,0.0,-999.0,81,-99.99,,,0.00,Acu-Link.com,2013-08-26 06:00:00,
2013-08-26 00:16:00,57.7,52.2,30.31,East,90,0.0,-999.0,82,-99.99,,,0.00,Acu-Link.com,2013-08-26 06:16:00,
2013-08-26 00:31:00,58.3,52.2,30.31,ENE,67,3.7,-999.0,80,-99.99,,,0.00,Acu-Link.com,2013-08-26 06:31:00,
2013-08-26 00:46:00,60.4,52.4,30.31,ESE,112,4.2,-999.0,75,-99.99,,,0.00,Acu-Link.com,2013-08-26 06:46:00,
2013-08-26 01:01:00,60.6,52.3,30.31,SE,135,5.8,-999.0,74,-99.99,,,0.00,Acu-Link.com,2013-08-26 07:01:00,
2013-08-26 01:16:00,60.8,52.1,30.31,East,90,4.7,-999.0,73,-99.99,,,0.00,Acu-Link.com,2013-08-26 07:16:00,
2013-08-26 01:31:00,60.8,52.1,30.31,ENE,67,6.3,-999.0,73,-99.99,,,0.00,Acu-Link.com,2013-08-26 07:31:00,
2013-08-26 01:47:00,59.7,51.8,30.31,WNW,292,2.7,-999.0,75,-99.99,,,0.00,Acu-Link.com,2013-08-26 07:47:00,
2013-08-26 02:02:00,58.3,52.2,30.31,ESE,112,1.7,-999.0,80,-99.99,,,0.00,Acu-Link.com,2013-08-26 08:02:00,
2013-08-26 02:18:00,57.7,51.9,30.31,ESE,112,0.0,-999.0,81,-99.99,,,0.00,Acu-Link.com,2013-08-26 08:18:00,
2013-08-26 02:33:00,56.8,51.7,30.31,East,90,4.2,-999.0,83,-99.99,,,0.00,Acu-Link.com,2013-08-26 08:33:00,
2013-08-26 02:48:00,56.3,51.5,30.31,NNE,22,0.0,-999.0,84,-99.99,,,0.00,Acu-Link.com,2013-08-26 08:48:00,
2013-08-26 03:03:00,55.6,51.2,30.31,East,90,0.0,-999.0,85,-99.99,,,0.00,Acu-Link.com,2013-08-26 09:03:00,
2013-08-26 03:18:00,55.9,51.5,30.31,NW,315,0.0,-999.0,85,-99.99,,,0.00,Acu-Link.com,2013-08-26 09:18:00,
2013-08-26 03:33:00,54.7,50.9,30.31,ENE,67,0.0,-999.0,87,-99.99,,,0.00,Acu-Link.com,2013-08-26 09:33:00,
2013-08-26 03:48:00,55.2,50.5,30.31,East,90,4.2,-999.0,84,-99.99,,,0.00,Acu-Link.com,2013-08-26 09:48:00,
2013-08-26 04:04:00,54.3,49.9,30.30,East,90,0.0,-999.0,85,-99.99,,,0.00,Acu-Link.com,2013-08-26 10:04:00,
2013-08-26 04:19:00,54.0,49.9,30.31,East,90,0.0,-999.0,86,-99.99,,,0.00,Acu-Link.com,2013-08-26 10:19:00,
2013-08-26 04:34:00,53.6,49.2,30.31,South,180,3.7,-999.0,85,-99.99,,,0.00,Acu-Link.com,2013-08-26 10:34:00,
2013-08-26 04:50:00,53.2,49.1,30.31,SE,135,1.7,-999.0,86,-99.99,,,0.00,Acu-Link.com,2013-08-26 10:50:00,
2013-08-26 05:05:00,52.3,48.5,30.31,SE,135,0.0,-999.0,87,-99.99,,,0.00,Acu-Link.com,2013-08-26 11:05:00,
2013-08-26 05:20:00,51.6,48.2,30.32,SE,135,0.0,-999.0,88,-99.99,,,0.00,Acu-Link.com,2013-08-26 11:20:00,
2013-08-26 05:35:00,51.4,48.3,30.33,SE,135,0.0,-999.0,89,-99.99,,,0.00,Acu-Link.com,2013-08-26 11:35:00,
2013-08-26 05:51:00,50.9,47.8,30.32,SE,135,0.0,-999.0,89,-99.99,,,0.00,Acu-Link.com,2013-08-26 11:51:00,
2013-08-26 06:06:00,50.5,47.4,30.33,SE,135,0.0,-999.0,89,-99.99,,,0.00,Acu-Link.com,2013-08-26 12:06:00,
2013-08-26 06:21:00,50.4,47.6,30.32,SE,135,0.0,-999.0,90,-99.99,,,0.00,Acu-Link.com,2013-08-26 12:21:00,
2013-08-26 06:37:00,50.9,48.1,30.33,SSE,157,3.2,-999.0,90,-99.99,,,0.00,Acu-Link.com,2013-08-26 12:37:00,
2013-08-26 06:52:00,52.7,49.2,30.33,SSE,157,2.2,-999.0,88,-99.99,,,0.00,Acu-Link.com,2013-08-26 12:52:00,
2013-08-26 07:07:00,53.6,49.8,30.33,SSE,157,0.0,-999.0,87,-99.99,,,0.00,Acu-Link.com,2013-08-26 13:07:00,
2013-08-26 07:23:00,54.3,51.1,30.32,SSE,157,0.0,-999.0,89,-99.99,,,0.00,Acu-Link.com,2013-08-26 13:23:00,
2013-08-26 07:38:00,56.3,52.8,30.33,SSE,157,0.0,-999.0,88,-99.99,,,0.00,Acu-Link.com,2013-08-26 13:38:00,
2013-08-26 07:53:00,59.4,55.5,30.34,North,0,0.0,-999.0,87,-99.99,,,0.00,Acu-Link.com,2013-08-26 13:53:00,
2013-08-26 08:08:00,61.5,55.3,30.34,North,0,2.2,-999.0,80,-99.99,,,0.00,Acu-Link.com,2013-08-26 14:08:00,
2013-08-26 08:24:00,63.3,56.0,30.33,North,0,0.0,-999.0,77,-99.99,,,0.00,Acu-Link.com,2013-08-26 14:24:00,
2013-08-26 08:39:00,65.8,56.9,30.34,NNW,337,1.7,-999.0,73,-99.99,,,0.00,Acu-Link.com,2013-08-26 14:39:00,
2013-08-26 08:54:00,72.1,59.2,30.33,NE,45,0.0,-999.0,64,-99.99,,,0.00,Acu-Link.com,2013-08-26 14:54:00,
2013-08-26 09:09:00,66.9,56.0,30.33,NW,315,2.2,-999.0,68,-99.99,,,0.00,Acu-Link.com,2013-08-26 15:09:00,
2013-08-26 09:26:00,67.5,57.8,30.33,NNW,337,4.2,-999.0,71,-99.99,,,0.00,Acu-Link.com,2013-08-26 15:26:00,
2013-08-26 09:41:00,69.1,57.3,30.33,NNE,22,2.7,-999.0,66,-99.99,,,0.00,Acu-Link.com,2013-08-26 15:41:00,
2013-08-26 09:56:00,70.3,57.1,30.33,West,270,2.7,-999.0,63,-99.99,,,0.00,Acu-Link.com,2013-08-26 15:56:00,
2013-08-26 10:11:00,72.0,57.3,30.33,NE,45,4.2,-999.0,60,-99.99,,,0.00,Acu-Link.com,2013-08-26 16:11:00,
2013-08-26 10:26:00,72.3,55.7,30.33,NNE,22,5.8,-999.0,56,-99.99,,,0.00,Acu-Link.com,2013-08-26 16:26:00,
2013-08-26 10:42:00,73.2,56.5,30.33,NW,315,4.2,-999.0,56,-99.99,,,0.00,Acu-Link.com,2013-08-26 16:42:00,
2013-08-26 10:57:00,74.7,57.4,30.32,NW,315,2.7,-999.0,55,-99.99,,,0.00,Acu-Link.com,2013-08-26 16:57:00,
2013-08-26 11:12:00,75.9,57.5,30.31,SSE,157,3.2,-999.0,53,-99.99,,,0.00,Acu-Link.com,2013-08-26 17:12:00,
2013-08-26 11:27:00,75.7,57.3,30.32,NW,315,4.2,-999.0,53,-99.99,,,0.00,Acu-Link.com,2013-08-26 17:27:00,
2013-08-26 11:42:00,76.6,57.1,30.31,West,270,3.7,-999.0,51,-99.99,,,0.00,Acu-Link.com,2013-08-26 17:42:00,
2013-08-26 11:57:00,78.1,57.9,30.31,South,180,2.2,-999.0,50,-99.99,,,0.00,Acu-Link.com,2013-08-26 17:57:00,
2013-08-26 12:13:00,78.1,56.8,30.29,NNE,22,3.7,-999.0,48,-99.99,,,0.00,Acu-Link.com,2013-08-26 18:13:00,
2013-08-26 12:28:00,79.2,56.0,30.28,NNE,22,4.7,-999.0,45,-99.99,,,0.00,Acu-Link.com,2013-08-26 18:28:00,
2013-08-26 12:43:00,79.3,56.1,30.27,North,0,3.7,-999.0,45,-99.99,,,0.00,Acu-Link.com,2013-08-26 18:43:00,
2013-08-26 12:58:00,80.6,57.3,30.27,South,180,3.2,-999.0,45,-99.99,,,0.00,Acu-Link.com,2013-08-26 18:58:00,
2013-08-26 13:13:00,80.4,56.5,30.25,NE,45,1.7,-999.0,44,-99.99,,,0.00,Acu-Link.com,2013-08-26 19:13:00,
2013-08-26 13:28:00,79.7,54.6,30.24,ESE,112,1.1,-999.0,42,-99.99,,,0.00,Acu-Link.com,2013-08-26 19:28:00,
2013-08-26 13:44:00,82.6,57.2,30.25,NNW,337,4.2,-999.0,42,-99.99,,,0.00,Acu-Link.com,2013-08-26 19:44:00,
2013-08-26 13:59:00,80.4,55.8,30.24,NW,315,3.7,-999.0,43,-99.99,,,0.00,Acu-Link.com,2013-08-26 19:59:00,
2013-08-26 14:14:00,80.4,54.5,30.24,NNE,22,2.2,-999.0,41,-99.99,,,0.00,Acu-Link.com,2013-08-26 20:14:00,
2013-08-26 14:29:00,82.9,58.1,30.24,NNE,22,1.7,-999.0,43,-99.99,,,0.00,Acu-Link.com,2013-08-26 20:29:00,
2013-08-26 14:44:00,81.9,54.5,30.22,South,180,5.8,-999.0,39,-99.99,,,0.00,Acu-Link.com,2013-08-26 20:44:00,
2013-08-26 14:59:00,81.7,53.6,30.21,SSE,157,5.3,-999.0,38,-99.99,,,0.00,Acu-Link.com,2013-08-26 20:59:00,
2013-08-26 15:14:00,83.3,53.5,30.20,SE,135,1.7,-999.0,36,-99.99,,,0.00,Acu-Link.com,2013-08-26 21:14:00,
2013-08-26 15:30:00,82.0,51.6,30.20,South,180,2.7,-999.0,35,-99.99,,,0.00,Acu-Link.com,2013-08-26 21:30:00,
2013-08-26 15:45:00,78.1,52.5,30.21,ESE,112,9.9,-999.0,41,-99.99,,,0.00,Acu-Link.com,2013-08-26 21:45:00,
2013-08-26 16:00:00,74.8,54.3,30.20,East,90,7.3,-999.0,49,-99.99,,,0.00,Acu-Link.com,2013-08-26 22:00:00,
2013-08-26 16:16:00,76.3,52.8,30.19,SSE,157,6.3,-999.0,44,-99.99,,,0.00,Acu-Link.com,2013-08-26 22:16:00,
2013-08-26 16:31:00,75.4,54.9,30.18,NE,45,5.8,-999.0,49,-99.99,,,0.00,Acu-Link.com,2013-08-26 22:31:00,
2013-08-26 16:46:00,76.3,55.7,30.19,East,90,8.3,-999.0,49,-99.99,,,0.00,Acu-Link.com,2013-08-26 22:46:00,
2013-08-26 17:01:00,77.9,54.2,30.18,East,90,8.3,-999.0,44,-99.99,,,0.00,Acu-Link.com,2013-08-26 23:01:00,
2013-08-26 17:16:00,78.1,53.1,30.18,SE,135,6.8,-999.0,42,-99.99,,,0.00,Acu-Link.com,2013-08-26 23:16:00,
2013-08-26 17:31:00,78.6,53.6,30.19,SE,135,4.2,-999.0,42,-99.99,,,0.00,Acu-Link.com,2013-08-26 23:31:00,
2013-08-26 17:46:00,75.2,54.1,30.18,SE,135,7.8,-999.0,48,-99.99,,,0.00,Acu-Link.com,2013-08-26 23:46:00,
2013-08-26 18:02:00,73.4,53.1,30.18,South,180,7.3,-999.0,49,-99.99,,,0.00,Acu-Link.com,2013-08-27 00:02:00,
2013-08-26 18:17:00,73.0,53.2,30.19,SE,135,8.9,-999.0,50,-99.99,,,0.00,Acu-Link.com,2013-08-27 00:17:00,
2013-08-26 18:32:00,72.3,52.1,30.18,South,180,6.8,-999.0,49,-99.99,,,0.00,Acu-Link.com,2013-08-27 00:32:00,
2013-08-26 18:47:00,72.3,52.1,30.17,South,180,7.8,-999.0,49,-99.99,,,0.00,Acu-Link.com,2013-08-27 00:47:00,
2013-08-26 19:02:00,72.3,52.6,30.17,ESE,112,3.2,-999.0,50,-99.99,,,0.00,Acu-Link.com,2013-08-27 01:02:00,
2013-08-26 19:17:00,71.8,52.1,30.18,SE,135,4.7,-999.0,50,-99.99,,,0.00,Acu-Link.com,2013-08-27 01:17:00,
2013-08-26 19:33:00,72.0,52.9,30.18,SE,135,3.7,-999.0,51,-99.99,,,0.00,Acu-Link.com,2013-08-27 01:33:00,
2013-08-26 19:48:00,71.6,53.0,30.18,SE,135,3.2,-999.0,52,-99.99,,,0.00,Acu-Link.com,2013-08-27 01:48:00,
2013-08-26 20:03:00,70.7,52.7,30.18,SSE,157,4.7,-999.0,53,-99.99,,,0.00,Acu-Link.com,2013-08-27 02:03:00,
2013-08-26 20:20:00,70.2,52.8,30.19,SE,135,3.7,-999.0,54,-99.99,,,0.00,Acu-Link.com,2013-08-27 02:20:00,
2013-08-26 20:35:00,69.1,51.7,30.19,ESE,112,2.2,-999.0,54,-99.99,,,0.00,Acu-Link.com,2013-08-27 02:35:00,
2013-08-26 20:51:00,68.4,52.1,30.20,SSW,202,2.7,-999.0,56,-99.99,,,0.00,Acu-Link.com,2013-08-27 02:51:00,
2013-08-26 21:06:00,66.9,52.1,30.21,ENE,67,0.0,-999.0,59,-99.99,,,0.00,Acu-Link.com,2013-08-27 03:06:00,
2013-08-26 21:21:00,65.5,51.7,30.21,SSW,202,2.7,-999.0,61,-99.99,,,0.00,Acu-Link.com,2013-08-27 03:21:00,
2013-08-26 21:37:00,63.9,51.5,30.22,South,180,0.0,-999.0,64,-99.99,,,0.00,Acu-Link.com,2013-08-27 03:37:00,
2013-08-26 21:52:00,62.6,51.1,30.21,SE,135,3.2,-999.0,66,-99.99,,,0.00,Acu-Link.com,2013-08-27 03:52:00,
2013-08-26 22:07:00,62.6,51.5,30.21,SW,225,2.2,-999.0,67,-99.99,,,0.00,Acu-Link.com,2013-08-27 04:07:00,
2013-08-26 22:22:00,62.4,50.5,30.23,SSW,202,2.7,-999.0,65,-99.99,,,0.00,Acu-Link.com,2013-08-27 04:22:00,
2013-08-26 22:38:00,61.0,51.1,30.23,West,270,2.2,-999.0,70,-99.99,,,0.00,Acu-Link.com,2013-08-27 04:38:00,
2013-08-26 22:53:00,60.3,50.9,30.23,ENE,67,1.7,-999.0,71,-99.99,,,0.00,Acu-Link.com,2013-08-27 04:53:00,
2013-08-26 23:08:00,59.9,50.8,30.23,SSW,202,2.2,-999.0,72,-99.99,,,0.00,Acu-Link.com,2013-08-27 05:08:00,
2013-08-26 23:24:00,59.5,49.7,30.24,South,180,0.0,-999.0,70,-99.99,,,0.00,Acu-Link.com,2013-08-27 05:24:00,
2013-08-26 23:39:00,58.6,50.7,30.24,ESE,112,0.0,-999.0,75,-99.99,,,0.00,Acu-Link.com,2013-08-27 05:39:00,
2013-08-26 23:54:00,58.6,50.0,30.23,South,180,0.0,-999.0,73,-99.99,,,0.00,Acu-Link.com,2013-08-27 05:54:00,